Readsboro, Vermont
Current Conditions -  °F | °C
As of 7:52 PM on Saturday 25 Oct 2014 (Local Time) from KAQW Reporting Station
Few Clouds Few Clouds  
Wind Chill: 52°   Ceiling: Unl
Heat Index: 52°   Visibility: 10mi
Dew Point: 44°   Wind: 7mph
Humidity: 74%   Direction: NA
Pressure: 29.55"   Gusts: NA
Location:  42.77°N, 72.95°W
Report Text: KAQW 252352Z AUTO VRB06KT 10SM FEW085 11/07 A2955 RMK AO2 SLP008 T01110067 10161 20100 58021
Loading
Personal Weather Stations






























Interactive Weather Map
Tropical Storm Tracking
New forecast layout! Learn more

10-Day Weather Forecast

Advertisements
Track Severe Weather on mobile